Time;durP1;ratioP1;P1;durP2;ratioP2;P2;SDS_P1;SDS_P2;PMS_P1;PMS_P2;Temp;Humidity;BMP_temperature;BMP_pressure;BME280_temperature;BME280_humidity;BME280_pressure;Samples;Min_cycle;Max_cycle;Signal;HPM_P1;HPM_P2
2023/03/29 00:02:28;;;;;;;;;;;;;;;-142.75;100.00;77948.47;5032682;28;19913;-67
2023/03/29 00:04:55;;;;;;;;;;;;;;;-142.75;100.00;77964.22;5032543;28;19917;-68
2023/03/29 00:07:22;;;;;;;;;;;;;;;-142.75;100.00;77948.47;5014715;28;20404;-68
2023/03/29 00:09:47;;;;;;;;;;;;;;;-142.75;100.00;77938.63;5032593;28;19913;-68
2023/03/29 00:12:13;;;;;;;;;;;;;;;-142.75;100.00;77938.63;5032361;28;20373;-68
2023/03/29 00:14:38;;;;;;;;;;;;;;;-142.75;100.00;77936.66;5032445;28;19913;-68
2023/03/29 00:17:03;;;;;;;;;;;;;;;-142.75;100.00;77940.59;5014734;28;19917;-67
2023/03/29 00:19:34;;;;;;;;;;;;;;;-142.75;100.00;77928.78;5032334;28;20292;-68
2023/03/29 00:21:59;;;;;;;;;;;;;;;-142.75;100.00;77926.81;5032106;28;19921;-68
2023/03/29 00:24:24;;;;;;;;;;;;;;;-142.75;100.00;77915.00;5032180;28;20342;-67
2023/03/29 00:26:50;;;;;;;;;;;;;;;-142.75;100.00;77918.94;5032055;28;20442;-68
2023/03/29 00:29:15;;;;;;;;;;;;;;;-142.75;100.00;77930.75;5014487;28;20281;-67
2023/03/29 00:31:40;;;;;;;;;;;;;;;-142.75;100.00;77913.03;5032197;28;19913;-68
2023/03/29 00:34:06;;;;;;;;;;;;;;;-142.75;100.00;77913.03;5014368;28;19971;-65
2023/03/29 00:36:31;;;;;;;;;;;;;;;-142.75;100.00;77911.06;5014525;28;19968;-68
2023/03/29 00:38:56;;;;;;;;;;;;;;;-142.75;100.00;77905.13;5032048;28;19913;-68
2023/03/29 00:41:21;;;;;;;;;;;;;;;-142.75;100.00;77889.38;5032120;28;19921;-68
2023/03/29 00:43:50;;;;;;;;;;;;;;;-142.75;100.00;77887.41;5014528;28;20343;-68
2023/03/29 00:46:16;;;;;;;;;;;;;;;-142.75;100.00;77901.19;5014165;28;19964;-67
2023/03/29 00:48:41;;;;;;;;;;;;;;;-142.75;100.00;77893.31;5031949;28;20352;-67
2023/03/29 00:51:07;;;;;;;;;;;;;;;-142.75;100.00;77887.41;5031823;28;20392;-67
2023/03/29 00:53:35;;;;;;;;;;;;;;;-142.75;100.00;77871.66;5035397;28;19917;-68
2023/03/29 00:56:10;;;;;;;;;;;;;;;-142.75;100.00;77871.66;5038454;28;19920;-68
2023/03/29 00:58:35;;;;;;;;;;;;;;;-142.75;100.00;77883.47;5020635;28;19983;-68
2023/03/29 01:01:11;;;;;;;;;;;;;;;-142.75;100.00;77877.56;5020765;28;20368;-69
2023/03/29 01:03:40;;;;;;;;;;;;;;;-142.75;100.00;77877.56;5038476;28;20419;-68
2023/03/29 01:06:07;;;;;;;;;;;;;;;-142.75;100.00;77867.72;5038211;28;19959;-68
2023/03/29 01:08:39;;;;;;;;;;;;;;;-142.75;100.00;77865.75;5038401;28;19955;-67
2023/03/29 01:11:16;;;;;;;;;;;;;;;-142.75;100.00;77869.69;5038338;28;19917;-68
2023/03/29 01:13:47;;;;;;;;;;;;;;;-142.75;100.00;77861.81;5038216;28;19959;-67
2023/03/29 01:16:13;;;;;;;;;;;;;;;-142.75;100.00;77846.06;5038361;28;19963;-68
2023/03/29 01:18:38;;;;;;;;;;;;;;;-142.75;100.00;77853.94;5038199;28;19995;-67
2023/03/29 01:21:13;;;;;;;;;;;;;;;-142.75;100.00;77861.81;5038295;28;20564;-67
2023/03/29 01:23:53;;;;;;;;;;;;;;;-142.75;100.00;77842.13;5042870;28;20083;-68
2023/03/29 01:26:27;;;;;;;;;;;;;;;-142.75;100.00;77842.13;5036503;28;19921;-68
2023/03/29 01:29:05;;;;;;;;;;;;;;;-142.75;100.00;77836.22;5036941;28;19913;-68
2023/03/29 01:31:38;;;;;;;;;;;;;;;-142.75;100.00;77814.56;5036880;28;19913;-67
2023/03/29 01:34:10;;;;;;;;;;;;;;;-142.75;100.00;77820.47;5036758;28;19913;-67
2023/03/29 01:36:41;;;;;;;;;;;;;;;-142.75;100.00;77808.66;5019257;28;19920;-67
2023/03/29 01:39:06;;;;;;;;;;;;;;;-142.75;100.00;77814.56;5037007;28;19920;-68
2023/03/29 01:41:41;;;;;;;;;;;;;;;-142.75;100.00;77802.75;5036865;28;19913;-68
2023/03/29 01:44:16;;;;;;;;;;;;;;;-142.75;100.00;77798.81;5036811;28;19913;-67
2023/03/29 01:46:41;;;;;;;;;;;;;;;-142.75;100.00;77806.69;5036624;28;19924;-67
2023/03/29 01:49:12;;;;;;;;;;;;;;;-142.75;100.00;77800.78;5035467;28;19920;-67
2023/03/29 01:51:40;;;;;;;;;;;;;;;-142.75;100.00;77794.88;5040784;28;20439;-67
2023/03/29 01:54:09;;;;;;;;;;;;;;;-142.75;100.00;77790.94;5057789;28;20003;-67
2023/03/29 01:56:37;;;;;;;;;;;;;;;-142.75;100.00;77787.00;5058023;28;19983;-67
2023/03/29 01:59:04;;;;;;;;;;;;;;;-142.75;100.00;77787.00;5056101;28;19939;-69
2023/03/29 02:01:33;;;;;;;;;;;;;;;-142.75;100.00;77796.84;5056082;28;20019;-68
2023/03/29 02:04:01;;;;;;;;;;;;;;;-142.75;100.00;77777.16;5056379;28;20346;-69
2023/03/29 02:06:29;;;;;;;;;;;;;;;-142.75;100.00;77775.19;5036044;28;19913;-68
2023/03/29 02:08:54;;;;;;;;;;;;;;;-142.75;100.00;77775.19;5036808;28;19917;-67
2023/03/29 02:11:22;;;;;;;;;;;;;;;-142.75;100.00;77773.22;5054680;28;19920;-65
2023/03/29 02:13:47;;;;;;;;;;;;;;;-142.75;100.00;77771.25;5054810;28;19912;-68
2023/03/29 02:16:12;;;;;;;;;;;;;;;-142.75;100.00;77761.41;5054584;28;19919;-68
2023/03/29 02:18:39;;;;;;;;;;;;;;;-142.75;100.00;77751.56;5054418;28;19916;-69
2023/03/29 02:21:05;;;;;;;;;;;;;;;-142.75;100.00;77755.50;5054418;28;19923;-68
2023/03/29 02:23:33;;;;;;;;;;;;;;;-142.75;100.00;77747.63;5054557;28;19991;-68
2023/03/29 02:25:59;;;;;;;;;;;;;;;-142.75;100.00;77743.69;5054223;28;19963;-68
2023/03/29 02:28:25;;;;;;;;;;;;;;;-142.75;100.00;77723.97;5054309;28;19956;-68
2023/03/29 02:30:54;;;;;;;;;;;;;;;-142.75;100.00;77731.88;5036402;28;19917;-68
2023/03/29 02:33:30;;;;;;;;;;;;;;;-142.75;100.00;77720.03;5036646;28;20334;-68
2023/03/29 02:35:57;;;;;;;;;;;;;;;-142.75;100.00;77708.22;5054027;28;19967;-68
2023/03/29 02:38:24;;;;;;;;;;;;;;;-142.75;100.00;77723.97;5036252;28;19920;-68
2023/03/29 02:40:51;;;;;;;;;;;;;;;-142.75;100.00;77720.03;5054219;28;19913;-68
2023/03/29 02:43:18;;;;;;;;;;;;;;;-142.75;100.00;77712.16;5054095;28;19920;-68
2023/03/29 02:45:43;;;;;;;;;;;;;;;-142.75;100.00;77696.41;5054030;28;19963;-68
2023/03/29 02:48:11;;;;;;;;;;;;;;;-142.75;100.00;77692.47;5036082;28;19956;-68
2023/03/29 02:50:38;;;;;;;;;;;;;;;-142.75;100.00;77686.56;5053932;28;19913;-68
2023/03/29 02:53:10;;;;;;;;;;;;;;;-142.75;100.00;77678.69;5053872;28;19912;-67
2023/03/29 02:55:37;;;;;;;;;;;;;;;-142.75;100.00;77666.88;5035654;28;19913;-67
2023/03/29 02:58:07;;;;;;;;;;;;;;;-142.75;100.00;77674.75;5036072;28;20277;-68
2023/03/29 03:00:33;;;;;;;;;;;;;;;-142.75;100.00;77680.66;5053838;28;19913;-69
2023/03/29 03:02:58;;;;;;;;;;;;;;;-142.75;100.00;77672.78;5053612;28;19919;-68
2023/03/29 03:05:24;;;;;;;;;;;;;;;-142.75;100.00;77676.72;5053452;28;19916;-68
2023/03/29 03:07:50;;;;;;;;;;;;;;;-142.75;100.00;77657.03;5053579;28;19917;-68
2023/03/29 03:10:15;;;;;;;;;;;;;;;-142.75;100.00;77647.19;5035694;28;20394;-68
2023/03/29 03:12:40;;;;;;;;;;;;;;;-142.75;100.00;77660.97;5053403;28;19956;-69
2023/03/29 03:15:06;;;;;;;;;;;;;;;-142.75;100.00;77647.19;5035709;28;20020;-68
2023/03/29 03:17:32;;;;;;;;;;;;;;;-142.75;100.00;77662.94;5052703;28;19950;-68
2023/03/29 03:19:57;;;;;;;;;;;;;;;-142.75;100.00;77659.00;5035453;28;19913;-68
2023/03/29 03:22:23;;;;;;;;;;;;;;;-142.75;100.00;77649.16;5053473;28;19913;-68
2023/03/29 03:24:49;;;;;;;;;;;;;;;-142.75;100.00;77645.22;5053129;28;20392;-68
2023/03/29 03:27:14;;;;;;;;;;;;;;;-142.75;100.00;77639.31;5053003;28;19924;-67
2023/03/29 03:29:40;;;;;;;;;;;;;;;-142.75;100.00;77643.25;5053278;28;20446;-68
2023/03/29 03:32:05;;;;;;;;;;;;;;;-142.75;100.00;77627.50;5052916;28;19919;-68
2023/03/29 03:34:30;;;;;;;;;;;;;;;-142.75;100.00;77637.34;5034774;28;19913;-68
2023/03/29 03:36:56;;;;;;;;;;;;;;;-142.75;100.00;77621.59;5053117;28;20007;-67
2023/03/29 03:39:21;;;;;;;;;;;;;;;-142.75;100.00;77619.63;5052739;28;20295;-68
2023/03/29 03:41:46;;;;;;;;;;;;;;;-142.75;100.00;77613.72;5034642;28;20291;-68
2023/03/29 03:44:12;;;;;;;;;;;;;;;-142.75;100.00;77623.56;5052705;28;19966;-67
2023/03/29 03:46:37;;;;;;;;;;;;;;;-142.75;100.00;77617.66;5052857;28;19962;-68
2023/03/29 03:49:03;;;;;;;;;;;;;;;-142.75;100.00;77625.53;5034994;28;19913;-68
2023/03/29 03:51:28;;;;;;;;;;;;;;;-142.75;100.00;77625.53;5034904;28;19919;-68
2023/03/29 03:53:53;;;;;;;;;;;;;;;-142.75;100.00;77613.72;5052718;28;19917;-68
2023/03/29 03:56:19;;;;;;;;;;;;;;;-142.75;100.00;77605.84;5052666;28;19913;-68
2023/03/29 03:58:44;;;;;;;;;;;;;;;-142.75;100.00;77601.91;5034766;28;19913;-67
2023/03/29 04:01:10;;;;;;;;;;;;;;;-142.75;100.00;77605.84;5052487;28;20319;-68
2023/03/29 04:03:36;;;;;;;;;;;;;;;-142.75;100.00;77605.84;5049429;28;19924;-68
2023/03/29 04:06:02;;;;;;;;;;;;;;;-142.75;100.00;77607.81;5031993;28;19913;-69
2023/03/29 04:08:27;;;;;;;;;;;;;;;-142.75;100.00;77611.75;5032352;28;19986;-68
2023/03/29 04:10:54;;;;;;;;;;;;;;;-142.75;100.00;77607.81;5014880;28;19920;-67
2023/03/29 04:13:19;;;;;;;;;;;;;;;-142.75;100.00;77613.72;5032490;28;19920;-67
2023/03/29 04:15:44;;;;;;;;;;;;;;;-142.75;100.00;77601.91;5032820;28;20351;-67
2023/03/29 04:18:10;;;;;;;;;;;;;;;-142.75;100.00;77594.03;5032188;28;19923;-66
2023/03/29 04:20:36;;;;;;;;;;;;;;;-142.75;100.00;77588.13;5032230;28;19967;-68
2023/03/29 04:23:01;;;;;;;;;;;;;;;-142.75;100.00;77601.91;5032268;28;19941;-67
2023/03/29 04:25:26;;;;;;;;;;;;;;;-142.75;100.00;77578.28;5032075;28;19964;-67
2023/03/29 04:27:52;;;;;;;;;;;;;;;-142.75;100.00;77572.38;5031578;28;19967;-67
2023/03/29 04:30:17;;;;;;;;;;;;;;;-142.75;100.00;77562.53;5032216;28;19925;-67
2023/03/29 04:32:42;;;;;;;;;;;;;;;-142.75;100.00;77560.56;5032073;28;20361;-67
2023/03/29 04:35:07;;;;;;;;;;;;;;;-142.75;100.00;77574.34;5032004;28;19913;-67
2023/03/29 04:37:33;;;;;;;;;;;;;;;-142.75;100.00;77570.41;5032004;28;19913;-67
2023/03/29 04:40:03;;;;;;;;;;;;;;;-142.75;100.00;77570.41;5032224;28;20288;-67
2023/03/29 04:42:29;;;;;;;;;;;;;;;-142.75;100.00;77566.47;5014353;28;19917;-67
2023/03/29 04:44:54;;;;;;;;;;;;;;;-142.75;100.00;77566.47;5031823;28;19917;-67
2023/03/29 04:47:20;;;;;;;;;;;;;;;-142.75;100.00;77574.34;5014084;28;19917;-67
2023/03/29 04:49:45;;;;;;;;;;;;;;;-142.75;100.00;77570.41;5032093;28;20001;-67
2023/03/29 04:52:10;;;;;;;;;;;;;;;-142.75;100.00;77574.34;5014301;28;20280;-67
2023/03/29 04:54:36;;;;;;;;;;;;;;;-142.75;100.00;77566.47;5031638;28;19951;-67
2023/03/29 04:57:02;;;;;;;;;;;;;;;-142.75;100.00;77568.44;5029872;28;19917;-67
2023/03/29 04:59:27;;;;;;;;;;;;;;;-142.75;100.00;77564.50;5051605;28;19959;-68
2023/03/29 05:01:53;;;;;;;;;;;;;;;-142.75;100.00;77568.44;5051595;28;19913;-67
2023/03/29 05:04:18;;;;;;;;;;;;;;;-142.75;100.00;77574.34;5051695;28;19913;-67
2023/03/29 05:06:43;;;;;;;;;;;;;;;-142.75;100.00;77574.34;5051146;28;20027;-67
2023/03/29 05:09:09;;;;;;;;;;;;;;;-142.75;100.00;77566.47;5051652;28;19999;-66
2023/03/29 05:11:35;;;;;;;;;;;;;;;-142.75;100.00;77574.34;5051482;28;20000;-67
2023/03/29 05:14:02;;;;;;;;;;;;;;;-142.75;100.00;77570.41;5051519;28;20332;-67
2023/03/29 05:16:30;;;;;;;;;;;;;;;-142.75;100.00;77570.41;5051634;28;19913;-67
2023/03/29 05:18:56;;;;;;;;;;;;;;;-142.75;100.00;77564.50;5033628;28;19963;-67
2023/03/29 05:21:21;;;;;;;;;;;;;;;-142.75;100.00;77562.53;5051379;28;19913;-67
2023/03/29 05:23:46;;;;;;;;;;;;;;;-142.75;100.00;77562.53;5051529;28;19912;-68
2023/03/29 05:26:14;;;;;;;;;;;;;;;-142.75;100.00;77568.44;5051409;28;19998;-67
2023/03/29 05:28:39;;;;;;;;;;;;;;;-142.75;100.00;77568.44;5051350;28;19959;-67
2023/03/29 05:31:04;;;;;;;;;;;;;;;-142.75;100.00;77558.59;5031591;28;19948;-67
2023/03/29 05:33:30;;;;;;;;;;;;;;;-142.75;100.00;77556.63;5049606;28;19920;-67
2023/03/29 05:36:03;;;;;;;;;;;;;;;-142.75;100.00;77550.72;5032949;28;20298;-67
2023/03/29 05:38:37;;;;;;;;;;;;;;;-142.75;100.00;77554.66;5033611;28;20380;-67
2023/03/29 05:41:02;;;;;;;;;;;;;;;-142.75;100.00;77570.41;5037337;28;19948;-64
2023/03/29 05:43:28;;;;;;;;;;;;;;;-142.75;100.00;77562.53;5055094;28;20344;-67
2023/03/29 05:45:54;;;;;;;;;;;;;;;-142.75;100.00;77552.69;5054987;28;19920;-67
2023/03/29 05:48:22;;;;;;;;;;;;;;;-142.75;100.00;77554.66;5054754;28;19917;-67
2023/03/29 05:50:48;;;;;;;;;;;;;;;-142.75;100.00;77538.91;5055083;28;20000;-67
2023/03/29 05:53:15;;;;;;;;;;;;;;;-142.75;100.00;77531.03;5055025;28;19999;-67
2023/03/29 05:55:41;;;;;;;;;;;;;;;-142.75;100.00;77527.09;5054935;28;19943;-67
2023/03/29 05:58:06;;;;;;;;;;;;;;;-142.75;100.00;77527.09;5054999;28;19917;-67
2023/03/29 06:00:35;;;;;;;;;;;;;;;-142.75;100.00;77542.84;5055035;28;20014;-66
2023/03/29 06:03:00;;;;;;;;;;;;;;;-142.75;100.00;77544.81;5054789;28;19960;-67
2023/03/29 06:05:28;;;;;;;;;;;;;;;-142.75;100.00;77534.97;5051324;28;19956;-67
2023/03/29 06:07:53;;;;;;;;;;;;;;;-142.75;100.00;77525.13;5016899;28;19918;-67
2023/03/29 06:10:19;;;;;;;;;;;;;;;-142.75;100.00;77523.16;5034801;28;19959;-67
2023/03/29 06:12:45;;;;;;;;;;;;;;;-142.75;100.00;77519.22;5034609;28;19960;-67
2023/03/29 06:15:12;;;;;;;;;;;;;;;-142.75;100.00;77513.31;5034585;28;19919;-67
2023/03/29 06:17:38;;;;;;;;;;;;;;;-142.75;100.00;77515.28;5034503;28;19920;-67
2023/03/29 06:20:09;;;;;;;;;;;;;;;-142.75;100.00;77505.44;5034615;28;20008;-67
2023/03/29 06:22:34;;;;;;;;;;;;;;;-142.75;100.00;77507.41;5034737;28;19966;-67
2023/03/29 06:25:00;;;;;;;;;;;;;;;-142.75;100.00;77487.72;5016933;28;19913;-67
2023/03/29 06:27:25;;;;;;;;;;;;;;;-142.75;100.00;77489.69;5016674;28;20304;-66
2023/03/29 06:29:51;;;;;;;;;;;;;;;-142.75;100.00;77491.66;5034254;28;19913;-65
2023/03/29 06:32:16;;;;;;;;;;;;;;;-142.75;100.00;77483.78;5016699;28;19917;-67
2023/03/29 06:34:41;;;;;;;;;;;;;;;-142.75;100.00;77479.84;5033962;28;19913;-67
2023/03/29 06:37:07;;;;;;;;;;;;;;;-142.75;100.00;77470.00;5033932;28;20636;-67
2023/03/29 06:39:32;;;;;;;;;;;;;;;-142.75;100.00;77464.09;5034194;28;19924;-66
2023/03/29 06:41:58;;;;;;;;;;;;;;;-142.75;100.00;77464.09;5034195;28;19913;-67
2023/03/29 06:44:24;;;;;;;;;;;;;;;-142.75;100.00;77466.03;5033935;28;19920;-67
2023/03/29 06:46:49;;;;;;;;;;;;;;;-142.75;100.00;77471.97;5016130;28;19917;-67
2023/03/29 06:49:14;;;;;;;;;;;;;;;-142.75;100.00;77452.25;5034004;28;19913;-68
2023/03/29 06:51:40;;;;;;;;;;;;;;;-142.75;100.00;77466.03;5033209;28;19924;-67
2023/03/29 06:54:05;;;;;;;;;;;;;;;-142.75;100.00;77460.13;5033983;28;20265;-66
2023/03/29 06:56:31;;;;;;;;;;;;;;;-142.75;100.00;77464.09;5033821;28;19947;-67
2023/03/29 06:58:56;;;;;;;;;;;;;;;-142.75;100.00;77468.03;5033922;28;20004;-68
2023/03/29 07:01:21;;;;;;;;;;;;;;;-142.75;100.00;77462.13;5033613;28;19913;-70
2023/03/29 07:03:48;;;;;;;;;;;;;;;-142.75;100.00;77454.25;5015987;28;19913;-68
2023/03/29 07:06:15;;;;;;;;;;;;;;;-142.75;100.00;77468.03;5033293;28;19913;-68
2023/03/29 07:08:43;;;;;;;;;;;;;;;-142.75;100.00;77448.34;5033540;28;19917;-68
2023/03/29 07:11:13;;;;;;;;;;;;;;;-142.75;100.00;77444.38;5033306;28;20392;-68
2023/03/29 07:13:41;;;;;;;;;;;;;;;-142.75;100.00;77438.47;5015895;28;19913;-69
2023/03/29 07:16:13;;;;;;;;;;;;;;;-142.75;100.00;77452.25;5033490;28;19959;-68
2023/03/29 07:18:40;;;;;;;;;;;;;;;-142.75;100.00;77436.50;5033817;28;20008;-68
2023/03/29 07:21:05;;;;;;;;;;;;;;;-142.75;100.00;77436.50;5040360;28;20415;-68
2023/03/29 07:23:31;;;;;;;;;;;;;;;-142.75;100.00;77422.72;5035738;28;19914;-68
2023/03/29 07:25:56;;;;;;;;;;;;;;;-142.75;100.00;77432.56;5038245;28;20381;-68
2023/03/29 07:28:21;;;;;;;;;;;;;;;-142.75;100.00;77416.81;5033228;28;19921;-68
2023/03/29 07:30:46;;;;;;;;;;;;;;;-142.75;100.00;77405.00;5033099;28;20277;-68
2023/03/29 07:33:12;;;;;;;;;;;;;;;-142.75;100.00;77410.91;5033240;28;19917;-68
2023/03/29 07:35:38;;;;;;;;;;;;;;;-142.75;100.00;77414.84;5025203;28;19924;-69
2023/03/29 07:38:04;;;;;;;;;;;;;;;-142.75;100.00;77391.22;5040649;28;20391;-67
2023/03/29 07:40:30;;;;;;;;;;;;;;;-142.75;100.00;77389.25;5019812;28;19999;-68
2023/03/29 07:42:55;;;;;;;;;;;;;;;-142.75;100.00;77399.09;5032669;28;19987;-67
2023/03/29 07:45:22;;;;;;;;;;;;;;;-142.75;100.00;77401.06;5036664;28;19921;-67
2023/03/29 07:47:48;;;;;;;;;;;;;;;-142.75;100.00;77389.25;5038016;28;19952;-68
2023/03/29 07:50:14;;;;;;;;;;;;;;;-142.75;100.00;77371.53;5034112;28;19917;-67
2023/03/29 07:52:39;;;;;;;;;;;;;;;-142.75;100.00;77359.72;5032450;28;20277;-68
2023/03/29 07:55:05;;;;;;;;;;;;;;;-142.75;100.00;77357.75;5032459;28;20000;-68
2023/03/29 07:57:30;;;;;;;;;;;;;;;-142.75;100.00;77361.69;5039457;28;19920;-68
2023/03/29 07:59:55;;;;;;;;;;;;;;;-142.75;100.00;77336.09;5018767;28;19917;-68
2023/03/29 08:02:21;;;;;;;;;;;;;;;-142.75;100.00;77326.25;5035293;28;19920;-68
2023/03/29 08:04:46;;;;;;;;;;;;;;;-142.75;100.00;77332.16;5046193;28;19961;-68
2023/03/29 08:07:12;;;;;;;;;;;;;;;-142.75;100.00;77320.34;5023065;28;19921;-68
2023/03/29 08:09:37;;;;;;;;;;;;;;;-142.75;100.00;77306.56;5039201;28;19996;-68
2023/03/29 08:12:03;;;;;;;;;;;;;;;-142.75;100.00;77306.56;5046212;28;19923;-67
2023/03/29 08:14:28;;;;;;;;;;;;;;;-142.75;100.00;77284.91;5039479;28;19919;-68
2023/03/29 08:16:53;;;;;;;;;;;;;;;-142.75;100.00;77298.69;5047309;28;19921;-67
2023/03/29 08:19:19;;;;;;;;;;;;;;;-142.75;100.00;77279.00;5041011;28;19923;-64
2023/03/29 08:21:44;;;;;;;;;;;;;;;-142.75;100.00;77302.63;5022931;28;19921;-68
2023/03/29 08:24:09;;;;;;;;;;;;;;;-142.75;100.00;77296.72;5044028;28;19948;-66
2023/03/29 08:26:35;;;;;;;;;;;;;;;-142.75;100.00;77300.66;5040133;28;19932;-66
2023/03/29 08:29:00;;;;;;;;;;;;;;;-142.75;100.00;77284.91;5047876;28;20000;-66
2023/03/29 08:31:25;;;;;;;;;;;;;;;-142.75;100.00;77288.84;5050774;28;20309;-66
2023/03/29 08:33:52;;;;;;;;;;;;;;;-142.75;100.00;77275.06;5051337;28;20003;-67
2023/03/29 08:36:17;;;;;;;;;;;;;;;-142.75;100.00;77245.53;5051235;28;19913;-67
2023/03/29 08:38:42;;;;;;;;;;;;;;;-142.75;100.00;77227.81;5051286;28;19919;-66
2023/03/29 08:41:17;;;;;;;;;;;;;;;-142.75;100.00;77231.75;5033715;28;19913;-69
2023/03/29 08:43:50;;;;;;;;;;;;;;;-142.75;100.00;77223.88;5049223;28;19913;-68
2023/03/29 08:46:16;;;;;;;;;;;;;;;-142.75;100.00;77239.63;5033701;28;20388;-67
2023/03/29 08:48:44;;;;;;;;;;;;;;;-142.75;100.00;77227.81;5033510;28;19963;-68
2023/03/29 08:51:21;;;;;;;;;;;;;;;-142.75;100.00;77221.91;5051704;28;19999;-68
2023/03/29 08:53:51;;;;;;;;;;;;;;;-142.75;100.00;77198.28;5049637;28;20358;-68
2023/03/29 08:56:23;;;;;;;;;;;;;;;-142.75;100.00;77188.44;5033640;28;19916;-67
2023/03/29 08:58:50;;;;;;;;;;;;;;;-142.75;100.00;77196.31;5051046;28;19912;-68
2023/03/29 09:01:15;;;;;;;;;;;;;;;-142.75;100.00;77180.56;5032791;28;19917;-67
2023/03/29 09:03:46;;;;;;;;;;;;;;;-142.75;100.00;77196.31;5049735;28;20007;-69
2023/03/29 09:06:12;;;;;;;;;;;;;;;-142.75;100.00;77174.66;5049425;28;19920;-65
2023/03/29 09:08:45;;;;;;;;;;;;;;;-142.75;100.00;77188.44;5051400;28;19921;-68
2023/03/29 09:11:22;;;;;;;;;;;;;;;-142.75;100.00;77196.31;5049294;28;20456;-69
2023/03/29 09:13:47;;;;;;;;;;;;;;;-142.75;100.00;77162.84;5043806;28;19999;-67
2023/03/29 09:16:36;;;;;;;;;;;;;;;-142.75;100.00;77153.00;5042047;28;20436;-69
2023/03/29 09:19:06;;;;;;;;;;;;;;;-142.75;100.00;77168.75;5036577;28;20327;-69
2023/03/29 09:21:32;;;;;;;;;;;;;;;-142.75;100.00;77156.94;5045500;28;20514;-68
2023/03/29 09:24:07;;;;;;;;;;;;;;;-142.75;100.00;77170.72;5054014;28;19917;-69
2023/03/29 09:26:38;;;;;;;;;;;;;;;-142.75;100.00;77190.41;5039094;28;19913;-68
2023/03/29 09:29:04;;;;;;;;;;;;;;;-142.75;100.00;77180.56;5048482;28;19917;-68
2023/03/29 09:31:41;;;;;;;;;;;;;;;-142.75;100.00;77166.78;5050234;28;19925;-67
2023/03/29 09:34:20;;;;;;;;;;;;;;;-142.75;100.00;77147.09;5047656;28;19939;-67
2023/03/29 09:36:51;;;;;;;;;;;;;;;-142.75;100.00;77145.13;5035221;28;20360;-67
2023/03/29 09:39:17;;;;;;;;;;;;;;;-142.75;100.00;77143.16;5036193;28;19921;-68
2023/03/29 09:41:51;;;;;;;;;;;;;;;-142.75;100.00;77153.00;5054568;28;20058;-67
2023/03/29 09:44:17;;;;;;;;;;;;;;;-142.75;100.00;77156.94;5041382;28;19917;-66
2023/03/29 09:46:46;;;;;;;;;;;;;;;-142.75;100.00;77164.81;5032212;28;20269;-66
2023/03/29 09:49:16;;;;;;;;;;;;;;;-142.75;100.00;77143.16;5020943;28;19966;-67
2023/03/29 09:51:42;;;;;;;;;;;;;;;-142.75;100.00;77129.38;5048738;28;19943;-67
2023/03/29 09:54:09;;;;;;;;;;;;;;;-142.75;100.00;77143.16;5027015;28;19913;-68
2023/03/29 09:56:34;;;;;;;;;;;;;;;-142.75;100.00;77149.06;5041238;28;19917;-67
2023/03/29 09:59:00;;;;;;;;;;;;;;;-142.75;100.00;77154.97;5049533;28;19924;-68
2023/03/29 10:01:33;;;;;;;;;;;;;;;-142.75;100.00;77186.47;5050455;28;20047;-67
2023/03/29 10:03:58;;;;;;;;;;;;;;;-142.75;100.00;77178.59;5027125;28;19912;-66
2023/03/29 10:06:25;;;;;;;;;;;;;;;-142.75;100.00;77176.63;5050142;28;19917;-65
2023/03/29 10:08:56;;;;;;;;;;;;;;;-142.75;100.00;77186.47;5047609;28;20007;-66
2023/03/29 10:11:27;;;;;;;;;;;;;;;-142.75;100.00;77141.19;5049438;28;19956;-68
2023/03/29 10:13:58;;;;;;;;;;;;;;;-142.75;100.00;77129.38;5045965;28;19920;-67
2023/03/29 10:16:24;;;;;;;;;;;;;;;-142.75;100.00;77115.59;5037351;28;19912;-67
2023/03/29 10:18:50;;;;;;;;;;;;;;;-142.75;100.00;77097.88;5054262;28;20402;-68
2023/03/29 10:21:16;;;;;;;;;;;;;;;-142.75;100.00;77117.56;5054497;28;19912;-68
2023/03/29 10:23:42;;;;;;;;;;;;;;;-142.75;100.00;77097.88;5053489;28;20011;-67
2023/03/29 10:26:37;;;;;;;;;;;;;;;-142.75;100.00;77076.22;5035365;28;19916;-68
2023/03/29 10:29:05;;;;;;;;;;;;;;;-142.75;100.00;77058.50;5023912;28;19928;-68
2023/03/29 10:31:31;;;;;;;;;;;;;;;-142.75;100.00;77080.16;5054440;28;19920;-68
2023/03/29 10:34:00;;;;;;;;;;;;;;;-142.75;100.00;77101.81;5054504;28;19920;-67
2023/03/29 10:36:26;;;;;;;;;;;;;;;-142.75;100.00;77072.28;5054446;28;19921;-68
2023/03/29 10:38:53;;;;;;;;;;;;;;;-142.75;100.00;77082.13;5054254;28;19919;-67
2023/03/29 10:41:20;;;;;;;;;;;;;;;-142.75;100.00;77074.25;5054204;28;19947;-68
2023/03/29 10:43:48;;;;;;;;;;;;;;;-142.75;100.00;77058.50;5054413;28;19913;-68
2023/03/29 10:46:42;;;;;;;;;;;;;;;-142.75;100.00;77038.81;5054021;28;19920;-67
2023/03/29 10:49:18;;;;;;;;;;;;;;;-142.75;100.00;77044.72;5040634;28;19974;-68
2023/03/29 10:51:48;;;;;;;;;;;;;;;-142.75;100.00;77054.56;5053970;28;20028;-68
2023/03/29 10:54:14;;;;;;;;;;;;;;;-142.75;100.00;77044.72;5053859;28;20395;-68
2023/03/29 10:56:48;;;;;;;;;;;;;;;-142.75;100.00;77032.91;5036139;28;19948;-68
2023/03/29 10:59:22;;;;;;;;;;;;;;;-142.75;100.00;77021.09;5053739;28;19913;-67
2023/03/29 11:02:09;;;;;;;;;;;;;;;-142.75;100.00;77034.88;5035947;28;20280;-68
2023/03/29 11:04:37;;;;;;;;;;;;;;;-142.75;100.00;77017.16;5035825;28;20015;-68
2023/03/29 11:07:21;;;;;;;;;;;;;;;-142.75;100.00;77009.28;5035694;28;20015;-68
2023/03/29 11:09:56;;;;;;;;;;;;;;;-142.75;100.00;77027.00;5053484;28;19912;-68
2023/03/29 11:12:22;;;;;;;;;;;;;;;-142.75;100.00;77003.38;5053590;28;19967;-68
2023/03/29 11:14:54;;;;;;;;;;;;;;;-142.75;100.00;77017.16;5035571;28;19959;-68
2023/03/29 11:17:37;;;;;;;;;;;;;;;-142.75;100.00;76993.53;5053354;28;20404;-68
2023/03/29 11:20:18;;;;;;;;;;;;;;;-142.75;100.00;77007.31;5035590;28;20003;-68
2023/03/29 11:22:47;;;;;;;;;;;;;;;-142.75;100.00;77028.97;5035597;28;20380;-68
2023/03/29 11:25:12;;;;;;;;;;;;;;;-142.75;100.00;77034.88;5053269;28;19913;-68
2023/03/29 11:27:44;;;;;;;;;;;;;;;-142.75;100.00;77038.81;5035312;28;19924;-68
2023/03/29 11:30:22;;;;;;;;;;;;;;;-142.75;100.00;77052.59;5053397;28;19935;-68
2023/03/29 11:32:55;;;;;;;;;;;;;;;-142.75;100.00;77032.91;5053206;28;19917;-68
2023/03/29 11:35:36;;;;;;;;;;;;;;;-142.75;100.00;77030.94;5053053;28;19919;-69
2023/03/29 11:38:12;;;;;;;;;;;;;;;-142.75;100.00;77034.88;5052928;28;19913;-68
2023/03/29 11:40:49;;;;;;;;;;;;;;;-142.75;100.00;77034.88;5053120;28;19912;-68
2023/03/29 11:43:19;;;;;;;;;;;;;;;-142.75;100.00;77050.63;5052945;28;19963;-68
2023/03/29 11:45:48;;;;;;;;;;;;;;;-142.75;100.00;77036.84;5053169;28;19917;-68
2023/03/29 11:48:28;;;;;;;;;;;;;;;-142.75;100.00;77030.94;5052809;28;19967;-68
2023/03/29 11:51:06;;;;;;;;;;;;;;;-142.75;100.00;77009.28;5053047;28;20379;-69
2023/03/29 11:53:44;;;;;;;;;;;;;;;-142.75;100.00;76997.47;5052822;28;20426;-68
2023/03/29 11:56:18;;;;;;;;;;;;;;;-142.75;100.00;77001.41;5052750;28;19913;-68
2023/03/29 11:58:47;;;;;;;;;;;;;;;-142.75;100.00;77003.38;5042927;28;20299;-67
2023/03/29 12:01:15;;;;;;;;;;;;;;;-142.75;100.00;77005.34;5051289;28;19955;-68
2023/03/29 12:03:52;;;;;;;;;;;;;;;-142.75;100.00;77001.41;5034825;28;19966;-69
2023/03/29 12:06:25;;;;;;;;;;;;;;;-142.75;100.00;76991.56;5034562;28;20003;-68
2023/03/29 12:09:01;;;;;;;;;;;;;;;-142.75;100.00;76969.91;5052254;28;19917;-68
2023/03/29 12:11:43;;;;;;;;;;;;;;;-142.75;100.00;76967.94;5034699;28;19958;-68
2023/03/29 12:14:27;;;;;;;;;;;;;;;-142.75;100.00;76958.09;5052316;28;19966;-69
2023/03/29 12:16:55;;;;;;;;;;;;;;;-142.75;100.00;76967.94;5052522;28;19913;-68
2023/03/29 12:19:21;;;;;;;;;;;;;;;-142.75;100.00;76922.66;5034437;28;19921;-69
2023/03/29 12:21:47;;;;;;;;;;;;;;;-142.75;100.00;76920.69;5052206;28;19913;-68
2023/03/29 12:24:13;;;;;;;;;;;;;;;-142.75;100.00;76920.69;5052156;28;19975;-68